Gjoa Haven Airport
CYHK : now visible

Airfield :











YOU CAN JOIN US ON...

 
LOGIN :

Register | Disclaimer

   EN    FR    IT 

 









Legend :    VFR   Marginal VFR   IFR   Intensive IFR   Very Intensive IFR
Visi :
Ceiling :
>= 8 km
>= 3000ft
5 to 8 km
1000 to 3000 ft
1500m to 5 km
500 to 1000 ft
800 to 1500m
200 to 500 ft
< 800m
< 200 ft
Symbols :   Thunderstorms  Fog  Heavy snow  Heavy precipitations  Wind > 20 kt






- Airport Elevation : 152 ft
- IATA code : YHK


CYHK - Gjoa Haven

CURRENT METAR :
  • 150821Z AUTO 31014KT 4SM HZ OVC030 M30/M33 A2944 RMK SLP979

EXPIRED METARs :
  • 150800Z AUTO 31011KT 3SM -SN FEW025 OVC032 M29/M32 A2944 RMK SLP979
  • 150749Z AUTO 30010KT 4SM -SN OVC040 M29/M32 A2944 RMK SLP978
  • 150733Z AUTO 31009KT 4SM HZ BKN038 OVC048 M29/M32 A2943 RMK SLP976
  • 150714Z AUTO 31009KT 3SM -SN OVC030 M29/M32 A2943 RMK SLP975
  • 150707Z AUTO 32011KT 2 1/2SM -SN OVC030 M29/M32 A2942 RMK SLP974
  • 150636Z AUTO 33013KT 2 1/2SM HZ OVC032 M29/M32 A2942 RMK SLP973
  • 150615Z AUTO 32013KT 2 1/4SM HZ OVC036 M29/M32 A2942 RMK SLP974
  • 150600Z AUTO 32011G16KT 5SM BR OVC044 M30/M32 A2942 RMK SLP973
  • 150546Z AUTO 32012KT 5SM BR OVC050 M30/M32 A2942 RMK SLP974

TAF AMD TAF CYHK
Valid from the 15 at 06:00 until the 15 at 18:00 UTC


150626Z 1506/1518 32012KT P6SM FEW020 BKN040
TEMPO 1506/1512 2SM IC BR HZ BKN020
FM151200 32012KT P6SM BKN030
TEMPO 1512/1518 21/2SM IC HZ BKN020
BECMG 1513/1515 29010KT RMK FCST BASED ON AUTO OBS. NXT FCST BY 151200Z



MET'MAP, your aeronautical weather chart ! - Copyright ORBIFLY December 2007 - Disclaimer

ORBIFLY MET'MAP TEAM :

Programming & Development : Alexandra Zaïnal
Concept & original design : Baudouin d'Aumeries
Assistance for programming : Marc-Olivier Méhu
Technical & hardware support : Manuel Goepfert

Contact : metmap@orbifly.com




SOURCES & CREDITS :

   NOAA       Earth
Advisory